Time;durP1;ratioP1;P1;durP2;ratioP2;P2;SDS_P1;SDS_P2;PMS_P1;PMS_P2;Temp;Humidity;BMP_temperature;BMP_pressure;BME280_temperature;BME280_humidity;BME280_pressure;Samples;Min_cycle;Max_cycle;Signal;HPM_P1;HPM_P2
2023/07/19 00:00:37;;;;;;;8.00;6.67;;;;;;;;;;5015612;28;20438;-65
2023/07/19 00:03:03;;;;;;;12.53;7.70;;;;;;;;;;5014813;28;20456;-65
2023/07/19 00:05:29;;;;;;;9.10;6.80;;;;;;;;;;5015574;28;20519;-65
2023/07/19 00:07:58;;;;;;;7.63;6.93;;;;;;;;;;5014290;28;20417;-65
2023/07/19 00:10:24;;;;;;;12.87;7.47;;;;;;;;;;5014173;28;20501;-65
2023/07/19 00:12:50;;;;;;;11.17;7.23;;;;;;;;;;5015461;28;20437;-65
2023/07/19 00:15:16;;;;;;;7.27;6.67;;;;;;;;;;5015407;28;20438;-65
2023/07/19 00:17:44;;;;;;;7.77;6.70;;;;;;;;;;5015354;28;20480;-65
2023/07/19 00:20:10;;;;;;;25.07;7.97;;;;;;;;;;5015304;28;20442;-65
2023/07/19 00:22:36;;;;;;;15.47;7.47;;;;;;;;;;5015323;28;20436;-64
2023/07/19 00:25:05;;;;;;;9.80;6.93;;;;;;;;;;5014950;28;20488;-65
2023/07/19 00:27:31;;;;;;;8.40;7.70;;;;;;;;;;5015075;28;20423;-65
2023/07/19 00:29:57;;;;;;;10.03;7.47;;;;;;;;;;5015071;28;20411;-65
2023/07/19 00:32:22;;;;;;;14.63;7.77;;;;;;;;;;5013773;28;20445;-65
2023/07/19 00:34:48;;;;;;;17.53;7.90;;;;;;;;;;5015073;28;20417;-65
2023/07/19 00:37:14;;;;;;;9.07;7.97;;;;;;;;;;5014869;28;20446;-65
2023/07/19 00:39:41;;;;;;;8.00;6.93;;;;;;;;;;5014991;28;20489;-65
2023/07/19 00:42:07;;;;;;;19.37;8.60;;;;;;;;;;5014849;28;20466;-65
2023/07/19 00:44:36;;;;;;;12.40;7.50;;;;;;;;;;5014853;28;20945;-65
2023/07/19 00:47:04;;;;;;;10.03;7.50;;;;;;;;;;5014841;28;20423;-65
2023/07/19 00:49:31;;;;;;;11.37;7.47;;;;;;;;;;5014765;28;20441;-65
2023/07/19 00:51:59;;;;;;;13.90;9.00;;;;;;;;;;5014607;28;20501;-65
2023/07/19 00:54:25;;;;;;;8.20;7.43;;;;;;;;;;5014534;28;20562;-65
2023/07/19 00:56:51;;;;;;;13.57;7.20;;;;;;;;;;5014588;28;20465;-65
2023/07/19 00:59:18;;;;;;;9.93;7.60;;;;;;;;;;5014525;28;20415;-65
2023/07/19 01:01:47;;;;;;;12.20;6.90;;;;;;;;;;5014274;28;20434;-65
2023/07/19 01:04:13;;;;;;;9.27;6.73;;;;;;;;;;5013102;28;20475;-65
2023/07/19 01:06:42;;;;;;;10.87;6.63;;;;;;;;;;5014384;28;20416;-65
2023/07/19 01:09:08;;;;;;;9.83;7.27;;;;;;;;;;5013191;28;20434;-65
2023/07/19 01:11:34;;;;;;;12.03;7.53;;;;;;;;;;5014289;28;20955;-65
2023/07/19 01:14:00;;;;;;;8.50;6.73;;;;;;;;;;5014465;28;20471;-65
2023/07/19 01:16:26;;;;;;;8.13;6.90;;;;;;;;;;5014155;28;20453;-65
2023/07/19 01:18:51;;;;;;;10.50;7.90;;;;;;;;;;5014103;28;20433;-65
2023/07/19 01:21:18;;;;;;;9.30;7.60;;;;;;;;;;5012695;28;20486;-65
2023/07/19 01:23:46;;;;;;;12.97;7.23;;;;;;;;;;5014067;28;20496;-65
2023/07/19 01:26:12;;;;;;;11.47;6.67;;;;;;;;;;5013949;28;20411;-65
2023/07/19 01:28:38;;;;;;;16.00;6.80;;;;;;;;;;5014155;28;20810;-65
2023/07/19 01:31:05;;;;;;;16.30;7.00;;;;;;;;;;5014057;28;20483;-65
2023/07/19 01:33:32;;;;;;;8.20;7.33;;;;;;;;;;5014320;28;20444;-65
2023/07/19 01:36:00;;;;;;;7.10;6.40;;;;;;;;;;5014324;28;20508;-65
2023/07/19 01:38:26;;;;;;;8.13;7.43;;;;;;;;;;5013884;28;21047;-65
2023/07/19 01:40:54;;;;;;;9.73;6.93;;;;;;;;;;5013759;28;20502;-65
2023/07/19 01:43:20;;;;;;;7.97;7.17;;;;;;;;;;5013559;28;20439;-65
2023/07/19 01:45:46;;;;;;;9.63;7.10;;;;;;;;;;5013809;28;20905;-65
2023/07/19 01:48:13;;;;;;;9.90;6.70;;;;;;;;;;5012230;28;20432;-65
2023/07/19 01:50:38;;;;;;;9.97;7.10;;;;;;;;;;5013661;28;20441;-65
2023/07/19 01:53:04;;;;;;;8.30;6.70;;;;;;;;;;5013577;28;20445;-65
2023/07/19 01:55:31;;;;;;;8.77;6.40;;;;;;;;;;5012115;28;20458;-65
2023/07/19 01:57:57;;;;;;;7.27;5.97;;;;;;;;;;5013583;28;20424;-65
2023/07/19 02:00:25;;;;;;;7.73;7.13;;;;;;;;;;5013343;28;20793;-65
2023/07/19 02:02:51;;;;;;;8.50;7.17;;;;;;;;;;5013354;28;20468;-65
2023/07/19 02:05:17;;;;;;;9.30;6.57;;;;;;;;;;5013301;28;20465;-65
2023/07/19 02:07:44;;;;;;;7.67;6.60;;;;;;;;;;5013385;28;20434;-65
2023/07/19 02:10:11;;;;;;;7.83;6.33;;;;;;;;;;5013284;28;20425;-65
2023/07/19 02:12:37;;;;;;;7.13;6.40;;;;;;;;;;5013256;28;20438;-65
2023/07/19 02:15:06;;;;;;;7.10;6.40;;;;;;;;;;5013158;28;20962;-65
2023/07/19 02:17:32;;;;;;;7.27;6.53;;;;;;;;;;5012531;28;20444;-65
2023/07/19 02:19:58;;;;;;;7.87;6.87;;;;;;;;;;5013271;28;20402;-65
2023/07/19 02:22:24;;;;;;;6.93;6.30;;;;;;;;;;5011727;28;20672;-65
2023/07/19 02:24:52;;;;;;;7.17;6.20;;;;;;;;;;5012897;28;20823;-65
2023/07/19 02:27:18;;;;;;;9.43;6.30;;;;;;;;;;5012950;28;20789;-65
2023/07/19 02:29:44;;;;;;;11.37;6.70;;;;;;;;;;5012874;28;20405;-65
2023/07/19 02:32:10;;;;;;;10.03;7.10;;;;;;;;;;5012903;28;20453;-65
2023/07/19 02:34:38;;;;;;;11.23;7.17;;;;;;;;;;5011547;28;20948;-65
2023/07/19 02:37:04;;;;;;;6.77;6.07;;;;;;;;;;5012685;28;20457;-65
2023/07/19 02:39:30;;;;;;;8.23;6.87;;;;;;;;;;5012747;28;20919;-65
2023/07/19 02:41:59;;;;;;;10.30;7.47;;;;;;;;;;5012640;28;20856;-65
2023/07/19 02:44:25;;;;;;;10.73;6.70;;;;;;;;;;5012918;28;20555;-65
2023/07/19 02:46:53;;;;;;;12.27;6.40;;;;;;;;;;5012778;28;20496;-65
2023/07/19 02:49:22;;;;;;;14.10;7.40;;;;;;;;;;5012367;28;20414;-65
2023/07/19 02:51:48;;;;;;;10.77;7.40;;;;;;;;;;5012474;28;20434;-65
2023/07/19 02:54:14;;;;;;;6.77;6.20;;;;;;;;;;5012758;28;20432;-65
2023/07/19 02:56:43;;;;;;;8.30;6.93;;;;;;;;;;5012473;28;20520;-65
2023/07/19 02:59:09;;;;;;;8.60;6.70;;;;;;;;;;5012458;28;20837;-65
2023/07/19 03:01:36;;;;;;;13.10;7.23;;;;;;;;;;5012257;28;20413;-65
2023/07/19 03:04:06;;;;;;;9.00;7.20;;;;;;;;;;5012296;28;20984;-65
2023/07/19 03:06:32;;;;;;;7.57;6.87;;;;;;;;;;5010832;28;20447;-65
2023/07/19 03:08:58;;;;;;;11.13;7.50;;;;;;;;;;5012515;28;20445;-65
2023/07/19 03:11:24;;;;;;;8.67;7.73;;;;;;;;;;5012351;28;20417;-65
2023/07/19 03:13:50;;;;;;;9.90;7.40;;;;;;;;;;5012604;28;20482;-65
2023/07/19 03:16:16;;;;;;;14.10;8.00;;;;;;;;;;5012543;28;20424;-65
2023/07/19 03:18:42;;;;;;;10.00;7.40;;;;;;;;;;5012340;28;20441;-65
2023/07/19 03:21:08;;;;;;;10.17;7.30;;;;;;;;;;5011163;28;20421;-65
2023/07/19 03:23:34;;;;;;;9.20;7.60;;;;;;;;;;5012254;28;20466;-65
2023/07/19 03:26:00;;;;;;;11.40;7.43;;;;;;;;;;5012350;28;20411;-65
2023/07/19 03:28:28;;;;;;;8.73;7.60;;;;;;;;;;5013059;28;20448;-65
2023/07/19 03:30:54;;;;;;;11.17;7.30;;;;;;;;;;5016213;28;20438;-65
2023/07/19 03:33:23;;;;;;;12.70;7.23;;;;;;;;;;5016203;28;20471;-65
2023/07/19 03:35:54;;;;;;;13.97;6.93;;;;;;;;;;5015778;28;20444;-65
2023/07/19 03:38:20;;;;;;;7.63;7.03;;;;;;;;;;5016258;28;20880;-65
2023/07/19 03:40:46;;;;;;;14.17;7.30;;;;;;;;;;5015821;28;20408;-65
2023/07/19 03:43:12;;;;;;;9.60;8.00;;;;;;;;;;5015938;28;20457;-65
2023/07/19 03:45:39;;;;;;;10.70;7.70;;;;;;;;;;5015726;28;20515;-65
2023/07/19 03:48:05;;;;;;;9.30;7.97;;;;;;;;;;5015515;28;20912;-65
2023/07/19 03:50:31;;;;;;;8.00;6.93;;;;;;;;;;5015989;28;20415;-65
2023/07/19 03:53:01;;;;;;;6.93;6.30;;;;;;;;;;5015804;28;20986;-65
2023/07/19 03:55:27;;;;;;;11.13;6.70;;;;;;;;;;5015616;28;20780;-65
2023/07/19 03:57:53;;;;;;;7.63;6.70;;;;;;;;;;5014283;28;20436;-65
2023/07/19 04:00:22;;;;;;;7.77;6.80;;;;;;;;;;5015413;28;20419;-65
2023/07/19 04:02:48;;;;;;;15.73;7.20;;;;;;;;;;5015597;28;20814;-66
2023/07/19 04:05:14;;;;;;;7.43;6.70;;;;;;;;;;5015474;28;20467;-65
2023/07/19 04:07:42;;;;;;;7.87;7.10;;;;;;;;;;5015485;28;20773;-65
2023/07/19 04:10:08;;;;;;;8.60;6.77;;;;;;;;;;5015433;28;20416;-65
2023/07/19 04:12:34;;;;;;;7.93;6.97;;;;;;;;;;5015696;28;20403;-65
2023/07/19 04:15:01;;;;;;;10.87;9.77;;;;;;;;;;5015800;28;20772;-65
2023/07/19 04:17:27;;;;;;;9.07;7.53;;;;;;;;;;5015604;28;20520;-65
2023/07/19 04:19:53;;;;;;;7.13;6.33;;;;;;;;;;5015602;28;20425;-65
2023/07/19 04:22:19;;;;;;;7.37;6.67;;;;;;;;;;5015429;28;21096;-65
2023/07/19 04:24:46;;;;;;;10.77;6.90;;;;;;;;;;5015226;28;20456;-65
2023/07/19 04:27:14;;;;;;;11.23;7.27;;;;;;;;;;5015224;28;20417;-65
2023/07/19 04:29:40;;;;;;;8.60;7.80;;;;;;;;;;5015058;28;20445;-65
2023/07/19 04:32:06;;;;;;;7.70;7.00;;;;;;;;;;5015074;28;20475;-65
2023/07/19 04:34:32;;;;;;;9.73;7.93;;;;;;;;;;5015087;28;20435;-65
2023/07/19 04:36:58;;;;;;;9.70;8.63;;;;;;;;;;5013727;28;20451;-65
2023/07/19 04:39:24;;;;;;;11.87;10.77;;;;;;;;;;5014796;28;20772;-65
2023/07/19 04:41:50;;;;;;;9.43;8.47;;;;;;;;;;5014861;28;20417;-65
2023/07/19 04:44:16;;;;;;;8.20;7.27;;;;;;;;;;5014922;28;20461;-65
2023/07/19 04:46:42;;;;;;;43.53;13.37;;;;;;;;;;5014773;28;20419;-65
2023/07/19 04:49:08;;;;;;;43.23;12.90;;;;;;;;;;5014656;28;20436;-65
2023/07/19 04:51:35;;;;;;;16.17;8.73;;;;;;;;;;5033689;28;20426;-65
2023/07/19 04:54:05;;;;;;;12.77;7.90;;;;;;;;;;5034424;28;20443;-65
2023/07/19 04:56:31;;;;;;;13.63;7.87;;;;;;;;;;5034480;28;20419;-65
2023/07/19 04:58:57;;;;;;;16.20;9.20;;;;;;;;;;5034535;28;20547;-65
2023/07/19 05:01:25;;;;;;;8.97;6.43;;;;;;;;;;5034661;28;20454;-65
2023/07/19 05:03:51;;;;;;;8.03;7.23;;;;;;;;;;5034179;28;20507;-65
2023/07/19 05:06:17;;;;;;;12.27;7.60;;;;;;;;;;5034407;28;20460;-65
2023/07/19 05:08:44;;;;;;;10.20;7.10;;;;;;;;;;5034273;28;20412;-65
2023/07/19 05:11:10;;;;;;;8.13;6.97;;;;;;;;;;5034056;28;20475;-65
2023/07/19 05:13:36;;;;;;;7.73;7.10;;;;;;;;;;5034252;28;20405;-65
2023/07/19 05:16:03;;;;;;;11.83;7.57;;;;;;;;;;5034035;28;20491;-65
2023/07/19 05:18:29;;;;;;;8.67;6.60;;;;;;;;;;5033848;28;20483;-65
2023/07/19 05:20:58;;;;;;;7.20;6.63;;;;;;;;;;5033879;28;20820;-65
2023/07/19 05:23:24;;;;;;;11.57;6.53;;;;;;;;;;5033877;28;20827;-65
2023/07/19 05:25:50;;;;;;;8.33;7.00;;;;;;;;;;5033807;28;20424;-65
2023/07/19 05:28:17;;;;;;;10.83;6.80;;;;;;;;;;5032666;28;20509;-65
2023/07/19 05:30:43;;;;;;;7.67;7.07;;;;;;;;;;5033793;28;20508;-65
2023/07/19 05:33:12;;;;;;;8.70;7.80;;;;;;;;;;5033574;28;20884;-65
2023/07/19 05:35:38;;;;;;;16.53;7.27;;;;;;;;;;5033767;28;20424;-65
2023/07/19 05:38:04;;;;;;;11.70;8.03;;;;;;;;;;5033542;28;20441;-65
2023/07/19 05:40:32;;;;;;;10.87;8.20;;;;;;;;;;5033542;28;20466;-65
2023/07/19 05:42:58;;;;;;;11.87;8.40;;;;;;;;;;5033375;28;20482;-65
2023/07/19 05:45:24;;;;;;;8.47;7.77;;;;;;;;;;5033057;28;20484;-65
2023/07/19 05:47:50;;;;;;;10.60;7.10;;;;;;;;;;5033239;28;20410;-65
2023/07/19 05:50:16;;;;;;;10.10;6.70;;;;;;;;;;5033121;28;20471;-65
2023/07/19 05:52:42;;;;;;;9.87;7.90;;;;;;;;;;5032616;28;20409;-63
2023/07/19 05:55:08;;;;;;;12.30;6.80;;;;;;;;;;5033131;28;20437;-63
2023/07/19 05:57:37;;;;;;;7.07;5.90;;;;;;;;;;5033022;28;20421;-63
2023/07/19 06:00:13;;;;;;;7.80;7.03;;;;;;;;;;5033026;28;20790;-63
2023/07/19 06:02:39;;;;;;;12.87;6.80;;;;;;;;;;5032453;28;20445;-63
2023/07/19 06:05:08;;;;;;;7.50;6.37;;;;;;;;;;5032904;28;20553;-63
2023/07/19 06:07:35;;;;;;;14.00;6.47;;;;;;;;;;5032749;28;20419;-63
2023/07/19 06:10:01;;;;;;;7.17;6.43;;;;;;;;;;5032643;28;20415;-63
2023/07/19 06:12:29;;;;;;;6.40;5.77;;;;;;;;;;5032795;28;20457;-63
2023/07/19 06:14:55;;;;;;;10.20;7.30;;;;;;;;;;5032779;28;20420;-63
2023/07/19 06:17:21;;;;;;;9.10;6.67;;;;;;;;;;5032512;28;20510;-63
2023/07/19 06:19:47;;;;;;;8.37;6.83;;;;;;;;;;5032746;28;20782;-63
2023/07/19 06:22:13;;;;;;;8.23;6.90;;;;;;;;;;5032934;28;20420;-63
2023/07/19 06:24:39;;;;;;;10.23;5.90;;;;;;;;;;5032597;28;20468;-63
2023/07/19 06:27:05;;;;;;;7.20;6.30;;;;;;;;;;5032525;28;20781;-63
2023/07/19 06:29:31;;;;;;;11.40;6.47;;;;;;;;;;5032513;28;20527;-64
2023/07/19 06:31:57;;;;;;;12.77;6.17;;;;;;;;;;5032555;28;20434;-63
2023/07/19 06:34:24;;;;;;;10.73;6.87;;;;;;;;;;5032251;28;20942;-63
2023/07/19 06:36:50;;;;;;;7.17;6.43;;;;;;;;;;5032438;28;20802;-64
2023/07/19 06:39:16;;;;;;;11.07;7.13;;;;;;;;;;5032238;28;20432;-63
2023/07/19 06:41:42;;;;;;;7.43;6.47;;;;;;;;;;5032515;28;20774;-63
2023/07/19 06:44:08;;;;;;;7.30;6.50;;;;;;;;;;5032248;28;20506;-63
2023/07/19 06:46:36;;;;;;;10.33;5.90;;;;;;;;;;5032681;28;20479;-63
2023/07/19 06:49:04;;;;;;;5.97;5.53;;;;;;;;;;5032475;28;20415;-63
2023/07/19 06:51:33;;;;;;;7.37;5.83;;;;;;;;;;5032635;28;20439;-64
2023/07/19 06:53:59;;;;;;;6.50;5.90;;;;;;;;;;5032756;28;20447;-63
2023/07/19 06:56:25;;;;;;;10.27;5.70;;;;;;;;;;5032561;28;20443;-63
2023/07/19 06:58:50;;;;;;;8.20;5.97;;;;;;;;;;5032705;28;20418;-64
2023/07/19 07:01:16;;;;;;;8.50;6.40;;;;;;;;;;5032397;28;20498;-64
2023/07/19 07:07:01;;;;;;;9.60;5.73;;;;;;;;;;5009830;28;20887;-63
2023/07/19 07:09:28;;;;;;;6.13;5.40;;;;;;;;;;5032569;28;20420;-63
2023/07/19 07:11:54;;;;;;;10.80;5.97;;;;;;;;;;5032493;28;20439;-63
2023/07/19 07:14:20;;;;;;;10.13;5.30;;;;;;;;;;5032376;28;20424;-64
2023/07/19 07:16:46;;;;;;;9.43;5.70;;;;;;;;;;5032440;28;20600;-64
2023/07/19 07:19:12;;;;;;;6.07;5.47;;;;;;;;;;5032554;28;20429;-64
2023/07/19 07:21:39;;;;;;;8.00;5.17;;;;;;;;;;5032260;28;20581;-64
2023/07/19 07:24:07;;;;;;;9.93;5.90;;;;;;;;;;5032672;28;20470;-64
2023/07/19 07:26:33;;;;;;;7.20;5.90;;;;;;;;;;5032199;28;20924;-64
2023/07/19 07:28:59;;;;;;;6.07;5.57;;;;;;;;;;5032352;28;20408;-64
2023/07/19 07:31:25;;;;;;;6.70;5.10;;;;;;;;;;5032163;28;20869;-64
2023/07/19 07:33:51;;;;;;;10.40;5.40;;;;;;;;;;5032267;28;20416;-64
2023/07/19 07:36:17;;;;;;;5.87;5.43;;;;;;;;;;5032026;28;20462;-63
2023/07/19 07:38:43;;;;;;;6.70;6.10;;;;;;;;;;5032615;28;20410;-64
2023/07/19 07:41:11;;;;;;;5.30;4.87;;;;;;;;;;5032053;28;20474;-64
2023/07/19 07:43:40;;;;;;;6.83;5.67;;;;;;;;;;5031801;28;20430;-64
2023/07/19 07:46:06;;;;;;;9.67;6.00;;;;;;;;;;5032048;28;20901;-64
2023/07/19 07:48:34;;;;;;;5.83;5.30;;;;;;;;;;5032056;28;20410;-64
2023/07/19 07:51:00;;;;;;;6.77;6.13;;;;;;;;;;5031996;28;20411;-64
2023/07/19 07:53:26;;;;;;;7.60;5.10;;;;;;;;;;5032033;28;20428;-64
2023/07/19 07:55:53;;;;;;;6.23;4.90;;;;;;;;;;5032111;28;20435;-65
2023/07/19 07:58:19;;;;;;;5.27;4.77;;;;;;;;;;5031885;28;20827;-64
2023/07/19 08:00:48;;;;;;;8.63;5.60;;;;;;;;;;5031703;28;20417;-64
2023/07/19 08:03:14;;;;;;;4.97;4.57;;;;;;;;;;5032005;28;20461;-65
2023/07/19 08:05:40;;;;;;;5.80;5.20;;;;;;;;;;5031461;28;20471;-65
2023/07/19 08:08:07;;;;;;;11.87;5.60;;;;;;;;;;5032309;28;20392;-65
2023/07/19 08:10:33;;;;;;;4.83;4.47;;;;;;;;;;5035647;28;20419;-64
2023/07/19 08:12:59;;;;;;;4.53;4.13;;;;;;;;;;5033194;28;20435;-65
2023/07/19 08:15:28;;;;;;;16.13;12.90;;;;;;;;;;5034809;28;20898;-64
2023/07/19 08:17:54;;;;;;;5.13;4.67;;;;;;;;;;5035553;28;20480;-65
2023/07/19 08:20:24;;;;;;;5.10;4.63;;;;;;;;;;5035399;28;20422;-64
2023/07/19 08:22:49;;;;;;;9.53;4.70;;;;;;;;;;5034942;28;20427;-65
2023/07/19 08:25:16;;;;;;;4.63;4.20;;;;;;;;;;5035226;28;20463;-65
2023/07/19 08:27:44;;;;;;;4.70;4.27;;;;;;;;;;5034940;28;20430;-64
2023/07/19 08:30:15;;;;;;;4.97;4.43;;;;;;;;;;5033873;28;20424;-64
2023/07/19 08:32:48;;;;;;;8.93;3.83;;;;;;;;;;5035040;28;20466;-64
2023/07/19 08:35:17;;;;;;;4.57;4.27;;;;;;;;;;5035088;28;20430;-64
2023/07/19 08:37:45;;;;;;;5.27;4.97;;;;;;;;;;5034896;28;20508;-65
2023/07/19 08:40:12;;;;;;;4.93;4.53;;;;;;;;;;5035285;28;20424;-64
2023/07/19 08:42:38;;;;;;;6.60;4.33;;;;;;;;;;5035034;28;20442;-64
2023/07/19 08:45:06;;;;;;;5.03;4.60;;;;;;;;;;5035030;28;20467;-65
2023/07/19 08:47:35;;;;;;;5.30;4.83;;;;;;;;;;5034860;28;20957;-64
2023/07/19 08:50:01;;;;;;;5.07;4.63;;;;;;;;;;5034933;28;20756;-64
2023/07/19 08:52:28;;;;;;;5.00;4.60;;;;;;;;;;5034648;28;20420;-64
2023/07/19 08:54:54;;;;;;;6.73;5.10;;;;;;;;;;5034706;28;20925;-64
2023/07/19 08:57:20;;;;;;;5.93;4.97;;;;;;;;;;5034610;28;20432;-64
2023/07/19 08:59:46;;;;;;;10.03;4.63;;;;;;;;;;5034691;28;20423;-63
2023/07/19 09:02:15;;;;;;;7.67;4.50;;;;;;;;;;5034578;28;20934;-63
2023/07/19 09:04:41;;;;;;;4.50;4.30;;;;;;;;;;5034326;28;20475;-63
2023/07/19 09:07:07;;;;;;;10.20;4.23;;;;;;;;;;5034311;28;20768;-64
2023/07/19 09:09:33;;;;;;;5.77;5.27;;;;;;;;;;5034433;28;20448;-63
2023/07/19 09:12:07;;;;;;;4.67;4.40;;;;;;;;;;5034412;28;20482;-64
2023/07/19 09:14:37;;;;;;;7.53;4.63;;;;;;;;;;5034486;28;20396;-64
2023/07/19 09:17:03;;;;;;;5.00;4.70;;;;;;;;;;5034253;28;20436;-64
2023/07/19 09:19:29;;;;;;;25.03;4.10;;;;;;;;;;5034370;28;20399;-64
2023/07/19 09:21:57;;;;;;;5.43;4.90;;;;;;;;;;5034205;28;20868;-64
2023/07/19 09:24:25;;;;;;;4.70;4.30;;;;;;;;;;5034185;28;20494;-64
2023/07/19 09:26:53;;;;;;;4.73;4.33;;;;;;;;;;5032938;28;20542;-64
2023/07/19 09:29:22;;;;;;;4.40;4.30;;;;;;;;;;5034241;28;20392;-64
2023/07/19 09:31:55;;;;;;;5.97;4.80;;;;;;;;;;5033938;28;20434;-64
2023/07/19 09:34:22;;;;;;;5.33;4.60;;;;;;;;;;5034058;28;20412;-64
2023/07/19 09:36:48;;;;;;;5.10;4.63;;;;;;;;;;5032524;28;20489;-64
2023/07/19 09:39:15;;;;;;;4.70;4.40;;;;;;;;;;5033986;28;20497;-64
2023/07/19 09:41:45;;;;;;;5.17;4.40;;;;;;;;;;5034003;28;20420;-64
2023/07/19 09:44:13;;;;;;;5.77;4.50;;;;;;;;;;5033737;28;20463;-64
2023/07/19 09:46:39;;;;;;;4.47;4.27;;;;;;;;;;5034009;28;20461;-64
2023/07/19 09:49:08;;;;;;;14.40;5.00;;;;;;;;;;5033749;28;20866;-64
2023/07/19 09:51:35;;;;;;;5.63;4.50;;;;;;;;;;5033480;28;20446;-64
2023/07/19 09:54:05;;;;;;;4.67;4.37;;;;;;;;;;5033590;28;20420;-64
2023/07/19 09:56:31;;;;;;;4.93;4.60;;;;;;;;;;5033419;28;20408;-64
2023/07/19 09:58:59;;;;;;;7.03;4.70;;;;;;;;;;5033481;28;20984;-64
2023/07/19 10:01:25;;;;;;;5.83;4.50;;;;;;;;;;5033276;28;20522;-64
2023/07/19 10:03:52;;;;;;;5.10;4.90;;;;;;;;;;5033271;28;20475;-64
2023/07/19 10:06:18;;;;;;;7.37;4.80;;;;;;;;;;5033454;28;20440;-64
2023/07/19 10:08:44;;;;;;;16.03;4.30;;;;;;;;;;5033548;28;20436;-64
2023/07/19 10:11:23;;;;;;;4.97;4.47;;;;;;;;;;5033402;28;20435;-64
2023/07/19 10:13:59;;;;;;;4.97;4.60;;;;;;;;;;5033439;28;21002;-64
2023/07/19 10:16:27;;;;;;;5.20;4.50;;;;;;;;;;5033427;28;20427;-64
2023/07/19 10:19:10;;;;;;;7.30;4.50;;;;;;;;;;5033544;28;20848;-64
2023/07/19 10:21:36;;;;;;;5.00;4.70;;;;;;;;;;5033098;28;20466;-65
2023/07/19 10:24:09;;;;;;;4.80;4.17;;;;;;;;;;5032973;28;20510;-64
2023/07/19 10:26:36;;;;;;;5.40;4.50;;;;;;;;;;5033304;28;20427;-64
2023/07/19 10:29:03;;;;;;;6.50;4.53;;;;;;;;;;5032937;28;20442;-64
2023/07/19 10:31:29;;;;;;;4.90;4.60;;;;;;;;;;5033075;28;20408;-64
2023/07/19 10:33:56;;;;;;;4.50;4.07;;;;;;;;;;5032972;28;20522;-65
2023/07/19 10:36:22;;;;;;;5.20;4.00;;;;;;;;;;5031736;28;20834;-64
2023/07/19 10:38:48;;;;;;;7.20;4.60;;;;;;;;;;5032562;28;20439;-64
2023/07/19 10:41:15;;;;;;;4.50;3.73;;;;;;;;;;5032870;28;20420;-64
2023/07/19 10:43:42;;;;;;;4.20;3.47;;;;;;;;;;5032702;28;20467;-64
2023/07/19 10:46:08;;;;;;;7.10;4.20;;;;;;;;;;5033079;28;20914;-64
2023/07/19 10:48:36;;;;;;;4.37;4.17;;;;;;;;;;5032974;28;20570;-64
2023/07/19 10:51:07;;;;;;;5.47;4.40;;;;;;;;;;5031412;28;21090;-64
2023/07/19 10:53:46;;;;;;;6.33;3.83;;;;;;;;;;5032699;28;20439;-64
2023/07/19 10:56:13;;;;;;;4.23;3.70;;;;;;;;;;5031546;28;20782;-63
2023/07/19 10:58:39;;;;;;;4.63;4.17;;;;;;;;;;5032652;28;20440;-64
2023/07/19 11:01:06;;;;;;;8.60;3.70;;;;;;;;;;5032614;28;20416;-64
2023/07/19 11:03:32;;;;;;;4.17;3.93;;;;;;;;;;5032597;28;20438;-64
2023/07/19 11:05:58;;;;;;;3.97;3.73;;;;;;;;;;5032682;28;20452;-64
2023/07/19 11:08:25;;;;;;;4.27;3.60;;;;;;;;;;5032449;28;20428;-64
2023/07/19 11:10:53;;;;;;;6.03;3.80;;;;;;;;;;5032631;28;20377;-64
2023/07/19 11:13:21;;;;;;;4.57;3.53;;;;;;;;;;5032292;28;20471;-64
2023/07/19 11:15:53;;;;;;;6.07;3.70;;;;;;;;;;5032411;28;20743;-64
2023/07/19 11:18:27;;;;;;;4.10;3.90;;;;;;;;;;5032255;28;20396;-64
2023/07/19 11:20:53;;;;;;;4.30;3.30;;;;;;;;;;5032552;28;20466;-64
2023/07/19 11:23:19;;;;;;;5.10;3.60;;;;;;;;;;5032475;28;20455;-64
2023/07/19 11:25:46;;;;;;;8.23;3.63;;;;;;;;;;5032496;28;20475;-64
2023/07/19 11:28:30;;;;;;;3.70;3.30;;;;;;;;;;5032408;28;20917;-64
2023/07/19 11:30:56;;;;;;;4.00;3.63;;;;;;;;;;5032451;28;20491;-64
2023/07/19 11:33:22;;;;;;;3.70;3.43;;;;;;;;;;5032304;28;20412;-64
2023/07/19 11:35:53;;;;;;;4.33;3.50;;;;;;;;;;5032399;28;20755;-64
2023/07/19 11:38:19;;;;;;;3.40;3.10;;;;;;;;;;5032376;28;20480;-64
2023/07/19 11:40:45;;;;;;;7.40;3.50;;;;;;;;;;5032305;28;20997;-64
2023/07/19 11:43:11;;;;;;;3.80;3.53;;;;;;;;;;5032262;28;20415;-64
2023/07/19 11:45:37;;;;;;;4.13;2.97;;;;;;;;;;5032461;28;20946;-64
2023/07/19 11:48:03;;;;;;;3.90;3.53;;;;;;;;;;5032190;28;20408;-64
2023/07/19 11:50:30;;;;;;;3.77;3.57;;;;;;;;;;5034657;28;20420;-63
2023/07/19 11:53:01;;;;;;;3.17;2.97;;;;;;;;;;5035976;28;20490;-63
2023/07/19 11:55:28;;;;;;;3.33;3.10;;;;;;;;;;5035962;28;20424;-63
2023/07/19 11:57:55;;;;;;;3.60;3.40;;;;;;;;;;5036036;28;20408;-64
2023/07/19 12:00:22;;;;;;;4.00;3.60;;;;;;;;;;5035845;28;20455;-64
2023/07/19 12:02:49;;;;;;;4.10;3.13;;;;;;;;;;5035047;28;20447;-64
2023/07/19 12:05:18;;;;;;;6.40;3.70;;;;;;;;;;5035444;28;20973;-64
2023/07/19 12:07:44;;;;;;;6.73;3.63;;;;;;;;;;5035677;28;20403;-65
2023/07/19 12:10:14;;;;;;;7.83;3.90;;;;;;;;;;5035498;28;20543;-64
2023/07/19 12:12:44;;;;;;;5.93;3.50;;;;;;;;;;5035335;28;20443;-64
2023/07/19 12:15:11;;;;;;;3.53;3.10;;;;;;;;;;5035229;28;20563;-64
2023/07/19 12:17:37;;;;;;;4.17;3.70;;;;;;;;;;5035096;28;20422;-65
2023/07/19 12:20:06;;;;;;;4.03;3.77;;;;;;;;;;5035226;28;20439;-65
2023/07/19 12:22:33;;;;;;;4.93;3.60;;;;;;;;;;5035177;28;20415;-64
2023/07/19 12:24:59;;;;;;;6.23;3.70;;;;;;;;;;5035200;28;20882;-64
2023/07/19 12:27:26;;;;;;;11.70;3.50;;;;;;;;;;5033877;28;20903;-64
2023/07/19 12:29:55;;;;;;;3.67;3.47;;;;;;;;;;5035156;28;20467;-64
2023/07/19 12:32:21;;;;;;;4.70;3.10;;;;;;;;;;5035065;28;20412;-64
2023/07/19 12:34:47;;;;;;;4.67;3.10;;;;;;;;;;5034932;28;20442;-64
2023/07/19 12:37:13;;;;;;;4.63;3.60;;;;;;;;;;5035041;28;20185;-64
2023/07/19 12:39:40;;;;;;;5.17;3.30;;;;;;;;;;5035053;28;20530;-65
2023/07/19 12:42:07;;;;;;;4.23;3.70;;;;;;;;;;5033870;28;20431;-65
2023/07/19 12:44:34;;;;;;;4.87;3.17;;;;;;;;;;5034882;28;20846;-64
2023/07/19 12:47:00;;;;;;;5.33;3.60;;;;;;;;;;5033782;28;20791;-65
2023/07/19 12:49:26;;;;;;;4.73;3.00;;;;;;;;;;5034932;28;20419;-64
2023/07/19 12:51:55;;;;;;;3.63;2.93;;;;;;;;;;5035442;28;20424;-65
2023/07/19 12:54:23;;;;;;;2.97;2.87;;;;;;;;;;5035743;28;20914;-64
2023/07/19 12:56:49;;;;;;;6.33;3.07;;;;;;;;;;5035042;28;20400;-64
2023/07/19 12:59:15;;;;;;;6.90;3.30;;;;;;;;;;5035191;28;20426;-65
2023/07/19 13:01:41;;;;;;;3.93;3.47;;;;;;;;;;5034436;28;20456;-65
2023/07/19 13:04:07;;;;;;;3.43;3.23;;;;;;;;;;5034914;28;20474;-65
2023/07/19 13:06:36;;;;;;;3.90;3.40;;;;;;;;;;5034871;28;20749;-65
2023/07/19 13:09:07;;;;;;;3.13;2.93;;;;;;;;;;5034683;28;20444;-65
2023/07/19 13:11:34;;;;;;;6.57;3.13;;;;;;;;;;5034688;28;20400;-65
2023/07/19 13:14:00;;;;;;;4.90;2.60;;;;;;;;;;5034910;28;20416;-65
2023/07/19 13:16:26;;;;;;;5.50;3.20;;;;;;;;;;5034641;28;20418;-65
2023/07/19 13:18:54;;;;;;;3.53;3.20;;;;;;;;;;5034477;28;20420;-65
2023/07/19 13:21:20;;;;;;;3.83;3.17;;;;;;;;;;5034502;28;20782;-65
2023/07/19 13:23:46;;;;;;;3.30;3.10;;;;;;;;;;5034122;28;20416;-65
2023/07/19 13:26:12;;;;;;;2.97;2.77;;;;;;;;;;5034255;28;20918;-65
2023/07/19 13:28:38;;;;;;;4.50;3.47;;;;;;;;;;5032775;28;20515;-65
2023/07/19 13:31:04;;;;;;;3.33;3.03;;;;;;;;;;5032905;28;20451;-65
2023/07/19 13:33:30;;;;;;;4.07;2.93;;;;;;;;;;5034127;28;20461;-64
2023/07/19 13:35:59;;;;;;;3.97;3.00;;;;;;;;;;5034053;28;20439;-64
2023/07/19 13:38:27;;;;;;;3.67;3.30;;;;;;;;;;5034189;28;20427;-64
2023/07/19 13:40:53;;;;;;;3.90;3.73;;;;;;;;;;5034140;28;20519;-63
2023/07/19 13:43:19;;;;;;;3.50;3.17;;;;;;;;;;5034055;28;20869;-64
2023/07/19 13:45:45;;;;;;;4.03;3.23;;;;;;;;;;5033932;28;20972;-64
2023/07/19 13:48:12;;;;;;;18.63;3.03;;;;;;;;;;5034125;28;20419;-64
2023/07/19 13:50:40;;;;;;;2.80;2.70;;;;;;;;;;5032834;28;21001;-65
2023/07/19 13:53:09;;;;;;;3.47;3.30;;;;;;;;;;5034054;28;20433;-65
2023/07/19 13:55:37;;;;;;;3.37;3.17;;;;;;;;;;5034043;28;20482;-64
2023/07/19 13:58:07;;;;;;;6.07;3.43;;;;;;;;;;5018053;28;20417;-64
2023/07/19 14:00:33;;;;;;;3.07;2.97;;;;;;;;;;5014766;28;20432;-65
2023/07/19 14:03:01;;;;;;;3.63;3.17;;;;;;;;;;5014904;28;20429;-64
2023/07/19 14:05:27;;;;;;;3.47;2.93;;;;;;;;;;5014811;28;20479;-65
2023/07/19 14:07:53;;;;;;;3.37;3.23;;;;;;;;;;5014437;28;20393;-64
2023/07/19 14:10:19;;;;;;;3.30;3.20;;;;;;;;;;5015124;28;20409;-64
2023/07/19 14:12:48;;;;;;;3.23;3.07;;;;;;;;;;5014997;28;20444;-64
2023/07/19 14:15:17;;;;;;;5.60;3.40;;;;;;;;;;5014422;28;20408;-64
2023/07/19 14:17:43;;;;;;;3.73;3.43;;;;;;;;;;5013873;28;20528;-64
2023/07/19 14:20:12;;;;;;;3.03;2.93;;;;;;;;;;5013465;28;20456;-64
2023/07/19 14:22:38;;;;;;;3.83;3.30;;;;;;;;;;5013416;28;20421;-64
2023/07/19 14:25:04;;;;;;;3.67;3.47;;;;;;;;;;5013433;28;20479;-64
2023/07/19 14:27:30;;;;;;;3.93;3.60;;;;;;;;;;5013443;28;20520;-64
2023/07/19 14:29:56;;;;;;;3.50;3.40;;;;;;;;;;5011927;28;20593;-64
2023/07/19 14:32:22;;;;;;;3.50;3.40;;;;;;;;;;5013341;28;20417;-64
2023/07/19 14:34:50;;;;;;;6.00;3.17;;;;;;;;;;5013340;28;20432;-64
2023/07/19 14:37:16;;;;;;;3.37;3.27;;;;;;;;;;5013260;28;20453;-65
2023/07/19 14:39:42;;;;;;;3.13;2.93;;;;;;;;;;5013215;28;20453;-65
2023/07/19 14:42:11;;;;;;;3.33;3.17;;;;;;;;;;5012978;28;20445;-64